Time;durP1;ratioP1;P1;durP2;ratioP2;P2;SDS_P1;SDS_P2;PMS_P1;PMS_P2;Temp;Humidity;BMP_temperature;BMP_pressure;BME280_temperature;BME280_humidity;BME280_pressure;Samples;Min_cycle;Max_cycle;Signal;HPM_P1;HPM_P2
2023/03/03 00:00:54;;;;;;;;;18.75;13.50;;;;;5.10;90.40;101680.75;5098353;27;45330;-81
2023/03/03 00:03:22;;;;;;;;;64.25;52.25;;;;;5.04;90.26;101671.50;5097726;27;47301;-80
2023/03/03 00:05:48;;;;;;;;;60.50;50.50;;;;;5.07;90.25;101687.09;5097928;27;48405;-80
2023/03/03 00:08:14;;;;;;;;;64.75;53.00;;;;;5.02;90.42;101683.94;5097799;27;45921;-80
2023/03/03 00:10:39;;;;;;;;;52.50;44.00;;;;;4.98;91.28;101677.22;5099445;27;45422;-80
2023/03/03 00:13:14;;;;;;;;;68.25;54.50;;;;;4.96;90.73;101685.25;5098585;27;45393;-80
2023/03/03 00:15:39;;;;;;;;;63.75;52.25;;;;;4.95;90.78;101691.47;5099436;27;45592;-80
2023/03/03 00:18:21;;;;;;;;;67.00;54.25;;;;;4.87;91.79;101685.91;5097722;27;45756;-80
2023/03/03 00:20:53;;;;;;;;;65.75;54.25;;;;;4.89;90.77;101692.78;5085177;27;45329;-80
2023/03/03 00:23:30;;;;;;;;;71.50;56.50;;;;;4.83;91.32;101690.59;5099261;27;45333;-80
2023/03/03 00:25:56;;;;;;;;;64.75;52.75;;;;;4.73;91.38;101690.41;5098964;27;46082;-80
2023/03/03 00:28:27;;;;;;;;;69.00;55.75;;;;;4.72;92.80;101698.41;5097846;27;45526;-80
2023/03/03 00:30:55;;;;;;;;;68.00;55.00;;;;;4.64;92.66;101694.56;5098956;27;45737;-80
2023/03/03 00:33:33;;;;;;;;;68.50;55.00;;;;;4.62;92.76;101693.84;5098504;27;45448;-81
2023/03/03 00:36:21;;;;;;;;;66.50;54.25;;;;;4.63;93.25;101698.16;5099365;27;46146;-80
2023/03/03 00:38:47;;;;;;;;;64.75;52.00;;;;;4.61;93.23;101696.59;5102549;27;45226;-80
2023/03/03 00:41:21;;;;;;;;;65.50;53.00;;;;;4.58;93.34;101695.00;5102724;27;45663;-80
2023/03/03 00:43:46;;;;;;;;;71.25;54.50;;;;;4.47;93.47;101687.91;5101946;27;45311;-80
2023/03/03 00:46:17;;;;;;;;;69.75;56.00;;;;;4.52;92.80;101693.66;5100700;27;48048;-80
2023/03/03 00:48:43;;;;;;;;;69.50;54.75;;;;;4.47;93.31;101694.94;5101753;27;45385;-80
2023/03/03 00:51:33;;;;;;;;;73.50;58.25;;;;;4.42;93.88;101701.38;5102526;27;45312;-80
2023/03/03 00:53:59;;;;;;;;;67.00;54.25;;;;;4.38;94.14;101681.50;5101011;27;46958;-80
2023/03/03 00:56:26;;;;;;;;;71.00;56.50;;;;;4.36;95.28;101678.13;5101992;27;45579;-79
2023/03/03 00:58:51;;;;;;;;;66.75;54.00;;;;;4.38;94.82;101684.13;5102469;27;45291;-80
2023/03/03 01:01:18;;;;;;;;;63.25;53.50;;;;;4.41;96.21;101685.69;5100889;27;45628;-81
2023/03/03 01:03:43;;;;;;;;;66.25;54.25;;;;;4.45;95.93;101689.78;5100015;27;47586;-80
2023/03/03 01:06:09;;;;;;;;;66.50;54.00;;;;;4.37;96.01;101677.16;5101895;27;46346;-81
2023/03/03 01:08:34;;;;;;;;;71.75;55.75;;;;;4.46;96.24;101688.00;5101959;27;45298;-80
2023/03/03 01:11:08;;;;;;;;;64.50;52.00;;;;;4.46;96.16;101685.38;5102108;27;45217;-80
2023/03/03 01:13:36;;;;;;;;;67.75;54.50;;;;;4.40;95.84;101676.94;5102163;27;45178;-80
2023/03/03 01:16:02;;;;;;;;;70.25;52.00;;;;;4.50;96.40;101694.72;5100493;27;47199;-81
2023/03/03 01:18:29;;;;;;;;;70.50;56.00;;;;;4.37;96.45;101674.53;5100531;27;46310;-80
2023/03/03 01:20:54;;;;;;;;;63.75;53.50;;;;;4.45;96.76;101697.69;5101671;27;45455;-80
2023/03/03 01:23:20;;;;;;;;;62.75;51.25;;;;;4.46;96.35;101695.91;5101715;27;48178;-80
2023/03/03 01:25:46;;;;;;;;;64.25;52.00;;;;;4.46;96.55;101707.25;5099988;27;48012;-80
2023/03/03 01:28:11;;;;;;;;;63.25;51.25;;;;;4.42;96.24;101705.78;5100394;27;45402;-80
2023/03/03 01:30:37;;;;;;;;;61.50;49.75;;;;;4.47;95.46;101705.47;5085885;27;45420;-80
2023/03/03 01:33:02;;;;;;;;;67.75;52.00;;;;;4.37;95.89;101700.03;5081290;27;45263;-80
2023/03/03 01:35:28;;;;;;;;;62.00;51.25;;;;;4.38;95.57;101701.72;5094783;27;47212;-80
2023/03/03 01:37:54;;;;;;;;;63.50;51.25;;;;;4.28;95.07;101691.84;5100310;27;45366;-79
2023/03/03 01:40:22;;;;;;;;;61.75;52.50;;;;;4.27;95.34;101702.47;5100035;27;45505;-80
2023/03/03 01:42:48;;;;;;;;;64.00;51.25;;;;;4.27;94.92;101707.72;5101260;27;45251;-80
2023/03/03 01:45:26;;;;;;;;;64.25;52.00;;;;;4.16;95.57;101700.63;5098937;27;47250;-80
2023/03/03 01:47:57;;;;;;;;;62.00;52.00;;;;;4.15;95.69;101702.41;5099315;27;45880;-80
2023/03/03 01:50:37;;;;;;;;;60.75;45.75;;;;;4.09;96.46;101692.28;5101182;27;45574;-80
2023/03/03 01:53:05;;;;;;;;;62.00;51.00;;;;;4.04;96.41;101686.50;5101408;27;45325;-80
2023/03/03 01:55:35;;;;;;;;;67.25;55.00;;;;;4.00;96.40;101677.16;5101277;27;45633;-80
2023/03/03 01:58:06;;;;;;;;;62.25;52.50;;;;;4.04;97.15;101690.00;5101076;27;45357;-80
2023/03/03 02:00:34;;;;;;;;;65.00;54.25;;;;;4.02;96.75;101696.31;5101083;27;45353;-80
2023/03/03 02:03:00;;;;;;;;;61.75;50.25;;;;;3.94;96.49;101677.56;5099332;27;46369;-80
2023/03/03 02:05:26;;;;;;;;;58.50;48.00;;;;;3.91;95.68;101676.00;5099699;27;48172;-80
2023/03/03 02:07:52;;;;;;;;;67.25;53.50;;;;;3.92;95.43;101686.44;5101108;27;45391;-80
2023/03/03 02:10:20;;;;;;;;;65.25;54.50;;;;;3.88;96.54;101692.84;5099813;27;45334;-80
2023/03/03 02:12:50;;;;;;;;;56.50;44.75;;;;;3.85;96.93;101686.94;5100573;27;45411;-80
2023/03/03 02:15:27;;;;;;;;;69.50;54.50;;;;;3.83;97.10;101688.88;5100759;27;45381;-80
2023/03/03 02:17:59;;;;;;;;;66.25;52.75;;;;;3.79;96.73;101685.59;5099510;27;45301;-80
2023/03/03 02:20:59;;;;;;;;;60.75;49.50;;;;;3.81;97.26;101690.75;5100774;27;45278;-80
2023/03/03 02:23:42;;;;;;;;;69.50;53.50;;;;;3.75;96.28;101684.13;5089989;27;45388;-79
2023/03/03 02:26:11;;;;;;;;;66.50;53.75;;;;;3.62;95.82;101684.16;5100435;27;46528;-80
2023/03/03 02:28:38;;;;;;;;;68.25;52.75;;;;;3.61;96.54;101685.91;5099330;27;45587;-79
2023/03/03 02:31:11;;;;;;;;;68.25;55.25;;;;;3.54;97.08;101679.41;5099200;27;45343;-80
2023/03/03 02:33:38;;;;;;;;;66.75;55.00;;;;;3.52;98.01;101686.53;5100496;27;45577;-80
2023/03/03 02:36:04;;;;;;;;;67.50;53.75;;;;;3.44;97.38;101681.81;5099029;27;47526;-80
2023/03/03 02:38:43;;;;;;;;;66.75;52.75;;;;;3.46;97.90;101679.06;5099288;27;46008;-80
2023/03/03 02:41:12;;;;;;;;;67.25;54.00;;;;;3.40;97.93;101681.19;5087229;27;45451;-80
2023/03/03 02:43:58;;;;;;;;;64.50;53.75;;;;;3.40;98.31;101685.59;5099993;27;45562;-80
2023/03/03 02:46:24;;;;;;;;;69.25;54.25;;;;;3.35;98.85;101678.00;5098998;27;47154;-80
2023/03/03 02:48:49;;;;;;;;;66.50;55.25;;;;;3.27;98.96;101675.06;5098740;27;45723;-80
2023/03/03 02:51:14;;;;;;;;;63.75;50.00;;;;;3.30;98.66;101682.75;5100535;27;45594;-80
2023/03/03 02:53:39;;;;;;;;;60.25;49.25;;;;;3.29;98.81;101694.19;5098882;27;46404;-80
2023/03/03 02:56:08;;;;;;;;;63.25;49.75;;;;;3.23;98.25;101689.38;5100151;27;45325;-79
2023/03/03 02:58:33;;;;;;;;;67.50;54.00;;;;;3.17;98.30;101684.50;5100364;27;45266;-80
2023/03/03 03:00:58;;;;;;;;;64.25;53.00;;;;;3.36;98.10;101684.97;5099389;27;45222;-79
2023/03/03 03:03:24;;;;;;;;;62.00;51.25;;;;;3.16;98.55;101681.03;5099446;27;56557;-79
2023/03/03 03:05:49;;;;;;;;;54.75;47.00;;;;;3.12;98.85;101679.56;5099899;27;48852;-80
2023/03/03 03:08:14;;;;;;;;;62.50;50.00;;;;;3.02;99.55;101674.91;5099920;27;45354;-79
2023/03/03 03:10:40;;;;;;;;;63.50;51.25;;;;;3.03;99.36;101678.38;5115955;27;46083;-80
2023/03/03 03:13:05;;;;;;;;;60.50;50.25;;;;;2.96;100.00;101663.97;5098049;27;52424;-79
2023/03/03 03:15:30;;;;;;;;;62.00;48.00;;;;;2.96;99.90;101663.97;5098523;27;47020;-80
2023/03/03 03:17:56;;;;;;;;;61.25;49.25;;;;;2.89;100.00;101656.50;5098209;27;50717;-79
2023/03/03 03:20:21;;;;;;;;;67.00;51.75;;;;;3.00;100.00;101676.78;5100044;27;45472;-80
2023/03/03 03:22:46;;;;;;;;;68.75;55.75;;;;;2.97;100.00;101689.28;5084834;27;45967;-80
2023/03/03 03:25:12;;;;;;;;;63.50;50.25;;;;;2.94;100.00;101690.34;5099727;27;46645;-80
2023/03/03 03:27:37;;;;;;;;;69.50;55.50;;;;;2.93;100.00;101685.19;5099821;27;45332;-79
2023/03/03 03:30:03;;;;;;;;;65.25;52.50;;;;;2.98;100.00;101696.22;5098260;27;45260;-79
2023/03/03 03:32:28;;;;;;;;;62.50;50.50;;;;;2.82;100.00;101657.84;5099708;27;46605;-80
2023/03/03 03:34:53;;;;;;;;;61.50;51.00;;;;;2.88;100.00;101675.81;5099703;27;46082;-80
2023/03/03 03:37:18;;;;;;;;;65.25;51.00;;;;;2.93;100.00;101688.63;5095002;27;50319;-79
2023/03/03 03:39:44;;;;;;;;;61.25;51.50;;;;;2.96;100.00;101693.69;5077877;28;49128;-80
2023/03/03 03:42:10;;;;;;;;;52.75;45.25;;;;;2.95;100.00;101688.53;5094095;27;47578;-79
2023/03/03 03:44:35;;;;;;;;;65.75;51.75;;;;;2.96;100.00;101695.50;5099635;27;45525;-79
2023/03/03 03:47:01;;;;;;;;;54.50;44.75;;;;;2.95;100.00;101702.53;5099357;27;45341;-79
2023/03/03 03:49:26;;;;;;;;;60.50;48.25;;;;;2.87;100.00;101689.88;5098514;27;45316;-79
2023/03/03 03:51:52;;;;;;;;;60.00;50.25;;;;;2.94;100.00;101702.63;5097506;27;51404;-79
2023/03/03 03:54:17;;;;;;;;;57.75;49.00;;;;;2.92;100.00;101702.72;5099618;27;45338;-79
2023/03/03 03:56:42;;;;;;;;;59.50;47.25;;;;;2.90;100.00;101702.81;5099211;27;45283;-79
2023/03/03 03:59:08;;;;;;;;;61.50;50.75;;;;;2.93;100.00;101711.44;5098537;27;45727;-79
2023/03/03 04:01:33;;;;;;;;;64.75;52.25;;;;;2.87;100.00;101710.03;5083224;27;45339;-79
2023/03/03 04:03:58;;;;;;;;;59.00;46.75;;;;;2.84;100.00;101702.41;5086976;27;47057;-79
2023/03/03 04:06:24;;;;;;;;;56.75;45.50;;;;;2.70;100.00;101688.38;5099275;27;45365;-79
2023/03/03 04:08:53;;;;;;;;;63.50;52.75;;;;;2.82;100.00;101715.63;5099471;27;45488;-79
2023/03/03 04:11:18;;;;;;;;;60.00;49.00;;;;;2.84;100.00;101716.34;5100858;27;45626;-79
2023/03/03 04:13:44;;;;;;;;;62.25;51.25;;;;;2.74;100.00;101692.47;5102735;27;45704;-79
2023/03/03 04:16:09;;;;;;;;;60.00;51.25;;;;;2.82;100.00;101713.00;5102932;27;45310;-79
2023/03/03 04:18:34;;;;;;;;;60.75;48.75;;;;;2.71;100.00;101702.31;5102642;27;45372;-79
2023/03/03 04:21:00;;;;;;;;;59.75;51.00;;;;;2.83;100.00;101712.03;5102687;27;45433;-79
2023/03/03 04:23:25;;;;;;;;;60.25;49.75;;;;;2.82;100.00;101707.75;5101301;27;48340;-79
2023/03/03 04:25:50;;;;;;;;;63.75;52.50;;;;;2.88;100.00;101717.00;5102319;27;45447;-78
2023/03/03 04:28:16;;;;;;;;;59.00;48.75;;;;;2.94;100.00;101729.75;5102956;27;45314;-79
2023/03/03 04:30:42;;;;;;;;;59.50;48.75;;;;;2.95;100.00;101725.31;5112514;27;47180;-79
2023/03/03 04:33:08;;;;;;;;;61.50;50.25;;;;;2.95;100.00;101718.28;5101192;27;47003;-79
2023/03/03 04:35:34;;;;;;;;;64.00;50.75;;;;;2.91;100.00;101711.56;5113548;27;45248;-79
2023/03/03 04:37:59;;;;;;;;;58.75;48.75;;;;;2.99;100.00;101718.94;5102923;27;45352;-79
2023/03/03 04:40:25;;;;;;;;;53.50;47.25;;;;;2.99;100.00;101716.31;5100878;27;46295;-79
2023/03/03 04:42:51;;;;;;;;;56.50;46.75;;;;;2.91;100.00;101703.69;5102645;27;45350;-78
2023/03/03 04:45:16;;;;;;;;;60.75;49.75;;;;;2.99;100.00;101721.56;5102381;27;45234;-79
2023/03/03 04:47:41;;;;;;;;;66.00;52.25;;;;;3.04;100.00;101729.97;5102374;27;45140;-79
2023/03/03 04:50:08;;;;;;;;;60.50;49.75;;;;;3.00;100.00;101725.88;5102116;27;45285;-79
2023/03/03 04:52:34;;;;;;;;;61.25;48.25;;;;;3.02;100.00;101724.81;5101164;27;48535;-79
2023/03/03 04:54:59;;;;;;;;;55.25;43.75;;;;;3.01;100.00;101720.50;5100889;27;46358;-79
2023/03/03 04:57:24;;;;;;;;;61.75;49.00;;;;;3.06;100.00;101728.09;5102400;27;45350;-79
2023/03/03 04:59:50;;;;;;;;;62.25;50.75;;;;;3.00;100.00;101715.34;5100456;27;46101;-79
2023/03/03 05:02:16;;;;;;;;;64.75;51.00;;;;;3.05;100.00;101726.38;5101737;27;45485;-79
2023/03/03 05:04:41;;;;;;;;;47.50;42.25;;;;;3.07;100.00;101726.28;5100221;27;45371;-79
2023/03/03 05:07:07;;;;;;;;;66.00;55.50;;;;;2.99;100.00;101722.38;5102284;27;45371;-79
2023/03/03 05:09:32;;;;;;;;;70.75;54.75;;;;;3.05;100.00;101730.81;5102071;27;45436;-79
2023/03/03 05:11:58;;;;;;;;;76.50;58.00;;;;;3.08;100.00;101730.63;5101981;27;45323;-79
2023/03/03 05:14:23;;;;;;;;;70.00;56.50;;;;;3.08;100.00;101722.75;5100331;27;45374;-79
2023/03/03 05:16:49;;;;;;;;;66.25;54.00;;;;;2.98;100.00;101704.09;5101849;27;45282;-79
2023/03/03 05:19:14;;;;;;;;;60.25;50.25;;;;;3.08;100.00;101718.31;5101703;27;45307;-79
2023/03/03 05:21:42;;;;;;;;;60.75;51.25;;;;;3.11;100.00;101731.25;5101652;27;46492;-79
2023/03/03 05:24:08;;;;;;;;;65.00;52.75;;;;;3.15;100.00;101731.91;5100892;27;45341;-79
2023/03/03 05:26:34;;;;;;;;;74.25;59.75;;;;;3.16;100.00;101730.94;5100472;27;45401;-79
2023/03/03 05:28:59;;;;;;;;;69.25;56.25;;;;;3.10;100.00;101726.09;5101042;27;45364;-79
2023/03/03 05:31:26;;;;;;;;;69.25;53.75;;;;;3.12;100.00;101726.84;5101637;27;50252;-79
2023/03/03 05:33:52;;;;;;;;;67.00;53.00;;;;;3.10;100.00;101726.09;5100923;27;45327;-79
2023/03/03 05:36:17;;;;;;;;;74.50;58.75;;;;;3.17;100.00;101743.13;5101803;27;45383;-79
2023/03/03 05:38:42;;;;;;;;;72.25;57.00;;;;;3.17;100.00;101737.06;5101357;27;45352;-79
2023/03/03 05:41:08;;;;;;;;;70.25;57.25;;;;;3.09;100.00;101733.16;5099981;27;53998;-79
2023/03/03 05:43:33;;;;;;;;;67.00;55.50;;;;;3.11;100.00;101733.88;5087575;27;45271;-79
2023/03/03 05:45:59;;;;;;;;;62.50;52.50;;;;;3.03;100.00;101723.03;5101803;27;45293;-80
2023/03/03 05:48:25;;;;;;;;;66.50;52.25;;;;;3.08;100.00;101736.69;5101255;27;45783;-80
2023/03/03 05:50:51;;;;;;;;;65.50;50.75;;;;;3.05;100.00;101734.28;5099972;27;47886;-79
2023/03/03 05:53:16;;;;;;;;;64.75;52.75;;;;;3.02;100.00;101744.97;5100875;27;45289;-78
2023/03/03 05:55:41;;;;;;;;;66.25;50.75;;;;;3.01;100.00;101748.56;5101666;27;45210;-79
2023/03/03 05:58:07;;;;;;;;;65.00;51.00;;;;;2.99;100.00;101735.53;5101054;27;45515;-79
2023/03/03 06:00:32;;;;;;;;;62.75;51.25;;;;;3.02;100.00;101751.09;5117238;27;48348;-78
2023/03/03 06:02:57;;;;;;;;;62.00;49.50;;;;;2.90;100.00;101736.09;5099457;27;45628;-79
2023/03/03 06:05:23;;;;;;;;;65.75;53.00;;;;;3.02;100.00;101747.59;5101023;27;45352;-79
2023/03/03 06:07:48;;;;;;;;;63.00;49.50;;;;;3.00;100.00;101755.59;5099572;27;47854;-79
2023/03/03 06:10:13;;;;;;;;;68.00;51.50;;;;;2.96;100.00;101748.84;5100687;27;45348;-79
2023/03/03 06:12:40;;;;;;;;;70.75;56.25;;;;;2.98;100.00;101759.25;5099813;27;45289;-79
2023/03/03 06:15:06;;;;;;;;;64.00;51.75;;;;;2.94;100.00;101748.13;5100445;27;45449;-78
2023/03/03 06:17:32;;;;;;;;;59.00;48.75;;;;;3.00;100.00;101752.94;5100114;27;45504;-80
2023/03/03 06:19:57;;;;;;;;;62.25;51.75;;;;;2.94;100.00;101742.03;5080367;27;48096;-82
2023/03/03 06:22:22;;;;;;;;;61.75;52.00;;;;;2.96;100.00;101745.41;5088689;27;45742;-79
2023/03/03 06:24:47;;;;;;;;;65.00;54.00;;;;;3.05;100.00;101760.53;5100466;27;45195;-80
2023/03/03 06:27:13;;;;;;;;;65.75;52.00;;;;;3.00;100.00;101746.88;5099144;27;51179;-79
2023/03/03 06:29:38;;;;;;;;;65.75;52.75;;;;;3.09;100.00;101759.44;5092699;27;48575;-77
2023/03/03 06:32:04;;;;;;;;;68.00;55.50;;;;;3.08;100.00;101760.34;5093537;27;45199;-77
2023/03/03 06:34:29;;;;;;;;;61.00;52.00;;;;;3.07;100.00;101755.19;5100439;27;45198;-77
2023/03/03 06:36:55;;;;;;;;;61.50;48.50;;;;;3.13;100.00;101765.31;5098960;27;46252;-78
2023/03/03 06:39:21;;;;;;;;;65.00;52.25;;;;;3.22;100.00;101774.38;5098974;27;48152;-78
2023/03/03 06:41:46;;;;;;;;;67.25;55.00;;;;;3.11;100.00;101752.25;5100418;27;45364;-77
2023/03/03 06:44:12;;;;;;;;;65.50;52.50;;;;;3.26;100.00;101779.31;5100362;27;45294;-77
2023/03/03 06:46:37;;;;;;;;;66.50;56.00;;;;;3.28;100.00;101779.22;5100536;27;45668;-77
2023/03/03 06:49:03;;;;;;;;;70.50;56.50;;;;;3.24;100.00;101764.59;5099499;27;46044;-77
2023/03/03 06:51:37;;;;;;;;;71.00;57.00;;;;;3.32;100.00;101785.13;5100266;27;45337;-77
2023/03/03 06:54:14;;;;;;;;;66.00;52.25;;;;;3.26;100.00;101776.69;5099152;27;45398;-77
2023/03/03 06:56:41;;;;;;;;;64.25;53.75;;;;;3.34;100.00;101797.22;5100367;27;45483;-76
2023/03/03 06:59:12;;;;;;;;;66.50;53.50;;;;;3.36;100.00;101789.25;5098729;27;47780;-78
2023/03/03 07:01:38;;;;;;;;;72.75;55.00;;;;;3.36;100.00;101792.72;5101193;27;45432;-77
2023/03/03 07:04:15;;;;;;;;;71.25;57.75;;;;;3.42;100.00;101807.25;5098922;27;45380;-80
2023/03/03 07:06:40;;;;;;;;;70.00;56.25;;;;;3.43;100.00;101805.44;5096701;27;45789;-81
2023/03/03 07:09:19;;;;;;;;;76.25;59.50;;;;;3.37;100.00;101798.81;5100470;27;46337;-79
2023/03/03 07:11:45;;;;;;;;;72.50;58.25;;;;;3.46;100.00;101813.97;5097493;27;45250;-77
2023/03/03 07:14:17;;;;;;;;;68.75;54.75;;;;;3.44;100.00;101817.66;5095831;27;45436;-77
2023/03/03 07:16:42;;;;;;;;;76.25;59.00;;;;;3.46;100.00;101821.84;5097669;27;45328;-76
2023/03/03 07:19:18;;;;;;;;;76.00;61.00;;;;;3.50;100.00;101827.78;5099792;27;46458;-77
2023/03/03 07:21:43;;;;;;;;;74.25;59.50;;;;;3.56;100.00;101837.03;5100010;27;45238;-77
2023/03/03 07:24:18;;;;;;;;;79.25;61.25;;;;;3.64;100.00;101840.00;5097844;27;45290;-77
2023/03/03 07:26:44;;;;;;;;;64.25;52.25;;;;;3.68;100.00;101840.66;5098293;27;46201;-77
2023/03/03 07:29:29;;;;;;;;;69.00;56.00;;;;;3.71;100.00;101846.53;5097359;27;45157;-77
2023/03/03 07:31:56;;;;;;;;;75.00;60.00;;;;;3.78;100.00;101852.22;5091039;27;45249;-77
2023/03/03 07:34:29;;;;;;;;;77.75;59.75;;;;;3.83;100.00;101851.94;5099685;27;45389;-79
2023/03/03 07:37:04;;;;;;;;;74.50;57.50;;;;;3.77;100.00;101840.88;5098207;27;46579;-77
2023/03/03 07:39:37;;;;;;;;;72.50;56.50;;;;;3.76;100.00;101828.66;5085990;27;45198;-77
2023/03/03 07:42:21;;;;;;;;;80.75;63.25;;;;;3.97;100.00;101866.78;5095219;27;45223;-77
2023/03/03 07:44:51;;;;;;;;;74.75;58.75;;;;;3.97;100.00;101872.88;5098098;27;45485;-78
2023/03/03 07:47:28;;;;;;;;;77.75;60.00;;;;;4.03;100.00;101866.38;5095963;27;45630;-78
2023/03/03 07:49:59;;;;;;;;;82.25;64.75;;;;;4.10;100.00;101869.44;5079003;27;45519;-77
2023/03/03 07:52:26;;;;;;;;;72.25;57.00;;;;;4.15;100.00;101869.97;5096868;27;45471;-78
2023/03/03 07:54:54;;;;;;;;;79.50;60.50;;;;;4.13;100.00;101871.88;5098057;27;45602;-78
2023/03/03 07:57:26;;;;;;;;;77.25;61.00;;;;;4.22;100.00;101873.84;5098190;27;46450;-77
2023/03/03 07:59:59;;;;;;;;;75.25;59.00;;;;;4.26;100.00;101888.50;5087964;27;47417;-79
2023/03/03 08:02:27;;;;;;;;;79.50;63.75;;;;;4.29;100.00;101893.53;5087473;27;45230;-77
2023/03/03 08:04:53;;;;;;;;;75.00;57.75;;;;;4.20;100.00;101872.28;5099138;27;45562;-77
2023/03/03 08:07:21;;;;;;;;;77.00;62.25;;;;;4.39;100.00;101896.41;5099077;27;45382;-77
2023/03/03 08:09:55;;;;;;;;;76.00;59.00;;;;;4.39;100.00;101903.44;5098930;27;45517;-77
2023/03/03 08:12:26;;;;;;;;;76.25;58.50;;;;;4.29;100.00;101877.75;5092714;27;45405;-78
2023/03/03 08:14:54;;;;;;;;;78.00;62.25;;;;;4.41;100.00;101891.88;5082889;27;45414;-77
2023/03/03 08:17:22;;;;;;;;;80.75;62.50;;;;;4.41;100.00;101891.03;5078359;27;45615;-77
2023/03/03 08:19:49;;;;;;;;;76.00;60.75;;;;;4.58;100.00;101905.66;5092803;27;48430;-77
2023/03/03 08:22:23;;;;;;;;;76.75;61.50;;;;;4.62;100.00;101896.63;5079231;27;45317;-79
2023/03/03 08:24:49;;;;;;;;;79.00;62.75;;;;;4.67;100.00;101899.75;5099307;27;45539;-79
2023/03/03 08:27:14;;;;;;;;;78.25;63.25;;;;;4.72;100.00;101914.41;5097731;27;47391;-76
2023/03/03 08:29:39;;;;;;;;;77.25;59.25;;;;;4.64;100.00;101902.59;5098910;27;45511;-77
2023/03/03 08:32:04;;;;;;;;;81.50;64.00;;;;;4.71;100.00;101915.34;5095785;27;45177;-77
2023/03/03 08:34:30;;;;;;;;;79.75;63.50;;;;;4.61;100.00;101886.19;5098484;27;45195;-76
2023/03/03 08:36:57;;;;;;;;;76.50;61.00;;;;;4.72;100.00;101911.75;5096274;27;45420;-79
2023/03/03 08:39:23;;;;;;;;;79.75;64.00;;;;;4.73;100.00;101913.47;5097233;27;45443;-77
2023/03/03 08:41:48;;;;;;;;;73.25;57.75;;;;;4.77;100.00;101912.31;5096747;27;45559;-76
2023/03/03 08:44:13;;;;;;;;;81.75;66.00;;;;;4.68;100.00;101890.91;5083800;27;45696;-77
2023/03/03 08:46:39;;;;;;;;;80.50;63.50;;;;;4.79;100.00;101889.34;5098446;27;47577;-76
2023/03/03 08:49:04;;;;;;;;;77.00;60.25;;;;;4.93;100.00;101915.53;5083822;27;48114;-78
2023/03/03 08:51:32;;;;;;;;;74.00;56.50;;;;;4.91;100.00;101903.44;5096504;27;45363;-77
2023/03/03 08:53:57;;;;;;;;;82.25;63.75;;;;;5.02;100.00;101918.47;5097736;27;45425;-77
2023/03/03 08:56:23;;;;;;;;;78.50;60.75;;;;;5.05;100.00;101920.88;5096863;27;48749;-78
2023/03/03 08:58:48;;;;;;;;;74.75;59.75;;;;;5.12;100.00;101923.94;5100514;27;46581;-77
2023/03/03 09:01:15;;;;;;;;;82.50;64.75;;;;;5.09;100.00;101905.72;5102042;27;45514;-77
2023/03/03 09:03:41;;;;;;;;;83.50;69.00;;;;;5.09;100.00;101906.53;5100628;27;45193;-76
2023/03/03 09:06:07;;;;;;;;;73.25;58.25;;;;;4.96;100.00;101890.75;5100451;27;47257;-77
2023/03/03 09:08:32;;;;;;;;;82.50;66.25;;;;;5.13;100.00;101910.66;5100514;27;47054;-76
2023/03/03 09:10:58;;;;;;;;;75.00;59.75;;;;;5.16;100.00;101910.44;5102166;27;45408;-76
2023/03/03 09:13:23;;;;;;;;;83.25;67.75;;;;;5.11;100.00;101904.66;5100858;27;45333;-77
2023/03/03 09:15:49;;;;;;;;;80.00;61.00;;;;;5.24;100.00;101920.41;5101845;27;46280;-77
2023/03/03 09:18:21;;;;;;;;;86.75;69.00;;;;;5.27;100.00;101927.28;5100070;27;47246;-76
2023/03/03 09:20:56;;;;;;;;;76.50;61.25;;;;;5.27;100.00;101922.00;5099297;27;45341;-77
2023/03/03 09:23:27;;;;;;;;;78.75;63.00;;;;;5.33;100.00;101931.28;5083773;27;45448;-79
2023/03/03 09:25:53;;;;;;;;;86.75;73.25;;;;;5.35;100.00;101924.94;5116630;27;47321;-77
2023/03/03 09:28:18;;;;;;;;;87.25;71.25;;;;;5.38;100.00;101931.75;5096743;27;47254;-78
2023/03/03 09:30:48;;;;;;;;;83.00;64.50;;;;;5.35;100.00;101911.75;5098205;27;45338;-77
2023/03/03 09:33:39;;;;;;;;;79.25;62.75;;;;;5.38;100.00;101922.06;5098039;27;45562;-78
2023/03/03 09:36:21;;;;;;;;;86.25;72.00;;;;;5.40;100.00;101921.97;5097149;27;45718;-78
2023/03/03 09:38:47;;;;;;;;;74.50;60.25;;;;;5.47;100.00;101931.09;5087744;27;47620;-76
2023/03/03 09:41:23;;;;;;;;;83.75;65.25;;;;;5.56;100.00;101927.81;5085829;27;45753;-76
2023/03/03 09:44:36;;;;;;;;;83.25;65.25;;;;;5.54;100.00;101915.69;5093493;27;45533;-77
2023/03/03 09:47:09;;;;;;;;;81.25;64.25;;;;;5.72;100.00;101933.75;5044677;28;46164;-76
2023/03/03 09:49:50;;;;;;;;;78.75;63.00;;;;;5.79;100.00;101933.19;5053774;28;46500;-77
2023/03/03 09:52:21;;;;;;;;;81.50;64.50;;;;;5.93;100.00;101932.16;5056017;27;45405;-76
2023/03/03 09:55:35;;;;;;;;;85.50;66.75;;;;;6.10;100.00;101940.66;5099731;27;45468;-76
2023/03/03 09:58:13;;;;;;;;;85.25;68.75;;;;;6.23;100.00;101948.50;5108990;27;45296;-77
2023/03/03 10:00:58;;;;;;;;;79.25;62.25;;;;;6.32;100.00;101949.63;5093078;27;46787;-76
2023/03/03 10:03:35;;;;;;;;;79.75;61.25;;;;;6.37;100.00;101946.63;5100310;27;45566;-77
2023/03/03 10:06:09;;;;;;;;;78.25;60.75;;;;;6.33;100.00;101943.38;5100761;27;45499;-77
2023/03/03 10:08:54;;;;;;;;;75.50;60.75;;;;;6.35;100.00;101956.44;5099150;27;47115;-76
2023/03/03 10:11:56;;;;;;;;;78.50;60.25;;;;;6.36;100.00;101961.63;5100145;27;45296;-75
2023/03/03 10:14:27;;;;;;;;;77.00;61.00;;;;;6.34;100.00;101967.97;5100325;27;45302;-77
2023/03/03 10:17:03;;;;;;;;;82.25;67.25;;;;;6.40;100.00;101968.34;5100419;27;45375;-77
2023/03/03 10:19:51;;;;;;;;;82.25;61.50;;;;;6.51;100.00;101964.03;5098888;27;47332;-77
2023/03/03 10:22:27;;;;;;;;;79.25;62.25;;;;;6.60;100.00;101968.63;5099585;27;45533;-77
2023/03/03 10:25:07;;;;;;;;;80.00;60.50;;;;;6.58;100.00;101973.19;5099064;27;45333;-76
2023/03/03 10:27:54;;;;;;;;;78.50;60.75;;;;;6.57;100.00;101975.00;5088046;27;45589;-78
2023/03/03 10:30:48;;;;;;;;;76.00;60.00;;;;;6.53;100.00;101964.78;5095636;27;46092;-77
2023/03/03 10:33:50;;;;;;;;;80.25;63.25;;;;;6.52;100.00;101974.50;5076447;27;45644;-78
2023/03/03 10:36:27;;;;;;;;;78.00;61.00;;;;;6.46;100.00;101976.78;5086835;27;45266;-76
2023/03/03 10:39:17;;;;;;;;;79.00;62.00;;;;;6.34;100.00;101976.72;5099193;27;45550;-76
2023/03/03 10:41:45;;;;;;;;;82.75;66.25;;;;;6.31;100.00;101976.94;5085910;27;46759;-77
2023/03/03 10:44:38;;;;;;;;;82.50;61.50;;;;;6.25;100.00;101956.28;5096908;27;45958;-76
2023/03/03 10:47:24;;;;;;;;;82.25;61.25;;;;;6.31;100.00;101971.66;5090712;27;45805;-75
2023/03/03 10:50:07;;;;;;;;;77.50;60.50;;;;;6.47;100.00;101983.72;5097312;27;45544;-76
2023/03/03 10:52:47;;;;;;;;;80.75;62.00;;;;;6.55;100.00;101979.53;5099630;27;45385;-76
2023/03/03 10:55:20;;;;;;;;;83.00;66.75;;;;;6.67;100.00;101980.41;5087390;27;47723;-76
2023/03/03 10:58:01;;;;;;;;;82.00;66.25;;;;;6.81;100.00;101976.72;5098201;27;45869;-76
2023/03/03 11:00:34;;;;;;;;;79.50;61.75;;;;;6.99;100.00;101978.88;5100560;27;45348;-75
2023/03/03 11:03:18;;;;;;;;;75.00;59.25;;;;;7.11;100.00;101978.88;5099301;27;45683;-76
2023/03/03 11:05:53;;;;;;;;;76.00;58.00;;;;;7.17;100.00;101973.94;5090045;27;45540;-77
2023/03/03 11:08:48;;;;;;;;;73.00;58.75;;;;;7.33;100.00;101981.50;5081387;27;45337;-77
2023/03/03 11:11:16;;;;;;;;;72.00;57.75;;;;;7.44;100.00;101979.81;5091208;27;45376;-75
2023/03/03 11:14:20;;;;;;;;;68.00;54.50;;;;;7.55;100.00;101981.59;5099787;27;45564;-76
2023/03/03 11:17:08;;;;;;;;;76.75;61.50;;;;;7.65;100.00;101971.09;5099476;27;46387;-77
2023/03/03 11:19:51;;;;;;;;;71.50;54.75;;;;;7.69;100.00;101976.00;5100290;27;45396;-76
2023/03/03 11:22:23;;;;;;;;;71.00;56.00;;;;;7.68;100.00;101960.25;5098059;27;45364;-76
2023/03/03 11:25:29;;;;;;;;;70.75;54.50;;;;;7.83;100.00;101966.09;5098494;27;46478;-77